sensor_id;sensor_type;location;lat;lon;timestamp;pressure;altitude;pressure_sealevel;temperature;humidity
51468;BME280;37545;45.302;-122.946;2023-11-18T00:01:39;100698.09;;;14.46;48.98
51468;BME280;37545;45.302;-122.946;2023-11-18T00:04:12;100701.53;;;14.42;49.26
51468;BME280;37545;45.302;-122.946;2023-11-18T00:06:42;100694.50;;;14.35;49.10
51468;BME280;37545;45.302;-122.946;2023-11-18T00:09:12;100697.88;;;14.28;49.40
51468;BME280;37545;45.302;-122.946;2023-11-18T00:11:41;100702.13;;;14.21;49.67
51468;BME280;37545;45.302;-122.946;2023-11-18T00:14:12;100705.44;;;14.13;49.91
51468;BME280;37545;45.302;-122.946;2023-11-18T00:16:40;100701.00;;;14.02;50.48
51468;BME280;37545;45.302;-122.946;2023-11-18T00:19:09;100705.19;;;13.94;51.19
51468;BME280;37545;45.302;-122.946;2023-11-18T00:21:38;100710.31;;;13.88;51.11
51468;BME280;37545;45.302;-122.946;2023-11-18T00:24:09;100703.25;;;13.81;51.84
51468;BME280;37545;45.302;-122.946;2023-11-18T00:26:43;100704.91;;;13.74;51.93
51468;BME280;37545;45.302;-122.946;2023-11-18T00:29:13;100701.28;;;13.66;53.20
51468;BME280;37545;45.302;-122.946;2023-11-18T00:31:42;100704.63;;;13.57;51.74
51468;BME280;37545;45.302;-122.946;2023-11-18T00:34:10;100705.31;;;13.47;53.12
51468;BME280;37545;45.302;-122.946;2023-11-18T00:36:39;100709.56;;;13.42;52.22
51468;BME280;37545;45.302;-122.946;2023-11-18T00:39:08;100703.31;;;13.32;52.73
51468;BME280;37545;45.302;-122.946;2023-11-18T00:41:36;100708.38;;;13.25;53.70
51468;BME280;37545;45.302;-122.946;2023-11-18T00:44:08;100699.53;;;13.16;53.28
51468;BME280;37545;45.302;-122.946;2023-11-18T00:46:41;100699.38;;;13.07;53.96
51468;BME280;37545;45.302;-122.946;2023-11-18T00:49:13;100693.94;;;12.93;55.51
51468;BME280;37545;45.302;-122.946;2023-11-18T00:51:42;100696.41;;;12.87;54.30
51468;BME280;37545;45.302;-122.946;2023-11-18T00:54:11;100697.13;;;12.80;56.00
51468;BME280;37545;45.302;-122.946;2023-11-18T00:56:39;100699.53;;;12.71;55.72
51468;BME280;37545;45.302;-122.946;2023-11-18T00:59:09;100693.34;;;12.64;55.12
51468;BME280;37545;45.302;-122.946;2023-11-18T01:01:40;100696.69;;;12.57;55.26
51468;BME280;37545;45.302;-122.946;2023-11-18T01:04:09;100696.56;;;12.51;55.41
51468;BME280;37545;45.302;-122.946;2023-11-18T01:06:38;100700.75;;;12.44;56.36
51468;BME280;37545;45.302;-122.946;2023-11-18T01:09:07;100706.69;;;12.39;56.61
51468;BME280;37545;45.302;-122.946;2023-11-18T01:11:36;100703.06;;;12.32;57.59
51468;BME280;37545;45.302;-122.946;2023-11-18T01:14:04;100700.38;;;12.26;56.94
51468;BME280;37545;45.302;-122.946;2023-11-18T01:16:34;100695.84;;;12.17;58.67
51468;BME280;37545;45.302;-122.946;2023-11-18T01:19:12;100696.63;;;12.13;58.11
51468;BME280;37545;45.302;-122.946;2023-11-18T01:21:41;100688.69;;;12.07;57.93
51468;BME280;37545;45.302;-122.946;2023-11-18T01:24:10;100692.84;;;12.00;58.28
51468;BME280;37545;45.302;-122.946;2023-11-18T01:26:41;100694.47;;;11.95;57.41
51468;BME280;37545;45.302;-122.946;2023-11-18T01:29:12;100695.22;;;11.89;58.04
51468;BME280;37545;45.302;-122.946;2023-11-18T01:31:41;100692.44;;;11.83;59.29
51468;BME280;37545;45.302;-122.946;2023-11-18T01:34:11;100693.22;;;11.79;59.29
51468;BME280;37545;45.302;-122.946;2023-11-18T01:36:40;100694.78;;;11.72;59.30
51468;BME280;37545;45.302;-122.946;2023-11-18T01:39:10;100692.06;;;11.68;59.37
51468;BME280;37545;45.302;-122.946;2023-11-18T01:41:39;100686.78;;;11.62;61.35
51468;BME280;37545;45.302;-122.946;2023-11-18T01:44:09;100690.06;;;11.56;59.68
51468;BME280;37545;45.302;-122.946;2023-11-18T01:46:41;100689.03;;;11.49;61.29
51468;BME280;37545;45.302;-122.946;2023-11-18T01:49:13;100681.09;;;11.42;60.25
51468;BME280;37545;45.302;-122.946;2023-11-18T01:51:43;100688.88;;;11.42;66.66
51468;BME280;37545;45.302;-122.946;2023-11-18T01:54:20;100679.31;;;11.39;67.10
51468;BME280;37545;45.302;-122.946;2023-11-18T01:56:50;100666.28;;;11.36;65.97
51468;BME280;37545;45.302;-122.946;2023-11-18T01:59:22;100675.75;;;11.36;65.29
51468;BME280;37545;45.302;-122.946;2023-11-18T02:01:53;100673.91;;;11.30;64.29
51468;BME280;37545;45.302;-122.946;2023-11-18T02:04:27;100672.94;;;11.26;63.04
51468;BME280;37545;45.302;-122.946;2023-11-18T02:06:56;100679.66;;;11.20;63.44
51468;BME280;37545;45.302;-122.946;2023-11-18T02:09:25;100684.78;;;11.17;62.86
51468;BME280;37545;45.302;-122.946;2023-11-18T02:11:59;100675.16;;;11.11;63.50
51468;BME280;37545;45.302;-122.946;2023-11-18T02:14:32;100677.56;;;11.05;64.70
51468;BME280;37545;45.302;-122.946;2023-11-18T02:17:05;100682.44;;;10.94;65.28
51468;BME280;37545;45.302;-122.946;2023-11-18T02:19:39;100680.59;;;10.90;64.69
51468;BME280;37545;45.302;-122.946;2023-11-18T02:22:09;100684.75;;;10.83;64.90
51468;BME280;37545;45.302;-122.946;2023-11-18T02:24:44;100677.81;;;10.82;63.62
51468;BME280;37545;45.302;-122.946;2023-11-18T02:27:14;100678.69;;;10.83;62.17
51468;BME280;37545;45.302;-122.946;2023-11-18T02:29:46;100670.97;;;10.84;65.08
51468;BME280;37545;45.302;-122.946;2023-11-18T02:32:20;100674.38;;;10.83;64.75
51468;BME280;37545;45.302;-122.946;2023-11-18T02:35:09;100672.59;;;10.81;66.49
51468;BME280;37545;45.302;-122.946;2023-11-18T02:37:42;100670.81;;;10.78;64.52
51468;BME280;37545;45.302;-122.946;2023-11-18T02:40:18;100663.78;;;10.74;63.95
51468;BME280;37545;45.302;-122.946;2023-11-18T02:42:50;100664.56;;;10.70;65.16
51468;BME280;37545;45.302;-122.946;2023-11-18T02:45:21;100660.19;;;10.67;66.73
51468;BME280;37545;45.302;-122.946;2023-11-18T02:47:50;100654.81;;;10.61;67.04
51468;BME280;37545;45.302;-122.946;2023-11-18T02:50:27;100654.75;;;10.58;65.46
51468;BME280;37545;45.302;-122.946;2023-11-18T02:52:55;100646.81;;;10.52;66.18
51468;BME280;37545;45.302;-122.946;2023-11-18T02:55:26;100657.03;;;10.47;67.55
51468;BME280;37545;45.302;-122.946;2023-11-18T02:57:56;100655.25;;;10.46;70.14
51468;BME280;37545;45.302;-122.946;2023-11-18T03:00:25;100645.69;;;10.42;69.01
51468;BME280;37545;45.302;-122.946;2023-11-18T03:02:55;100649.13;;;10.43;66.39
51468;BME280;37545;45.302;-122.946;2023-11-18T03:05:23;100639.53;;;10.39;68.55
51468;BME280;37545;45.302;-122.946;2023-11-18T03:07:52;100646.44;;;10.38;69.41
51468;BME280;37545;45.302;-122.946;2023-11-18T03:10:24;100647.22;;;10.36;67.16
51468;BME280;37545;45.302;-122.946;2023-11-18T03:12:55;100640.28;;;10.35;65.78
51468;BME280;37545;45.302;-122.946;2023-11-18T03:15:23;100639.34;;;10.33;65.01
51468;BME280;37545;45.302;-122.946;2023-11-18T03:17:52;100636.81;;;10.34;64.57
51468;BME280;37545;45.302;-122.946;2023-11-18T03:20:22;100646.31;;;10.35;64.35
51468;BME280;37545;45.302;-122.946;2023-11-18T03:22:52;100638.53;;;10.34;64.55
51468;BME280;37545;45.302;-122.946;2023-11-18T03:25:21;100643.72;;;10.34;64.47
51468;BME280;37545;45.302;-122.946;2023-11-18T03:27:51;100635.84;;;10.31;63.44
51468;BME280;37545;45.302;-122.946;2023-11-18T03:30:24;100632.38;;;10.30;63.56
51468;BME280;37545;45.302;-122.946;2023-11-18T03:32:52;100635.84;;;10.31;63.19
51468;BME280;37545;45.302;-122.946;2023-11-18T03:35:22;100636.69;;;10.30;64.45
51468;BME280;37545;45.302;-122.946;2023-11-18T03:37:50;100628.81;;;10.26;63.59
51468;BME280;37545;45.302;-122.946;2023-11-18T03:40:21;100629.78;;;10.29;63.81
51468;BME280;37545;45.302;-122.946;2023-11-18T03:42:50;100633.16;;;10.27;64.47
51468;BME280;37545;45.302;-122.946;2023-11-18T03:45:19;100629.69;;;10.27;63.79
51468;BME280;37545;45.302;-122.946;2023-11-18T03:47:49;100626.22;;;10.26;64.30
51468;BME280;37545;45.302;-122.946;2023-11-18T03:50:21;100630.47;;;10.24;64.23
51468;BME280;37545;45.302;-122.946;2023-11-18T03:52:50;100629.63;;;10.24;66.21
51468;BME280;37545;45.302;-122.946;2023-11-18T03:55:18;100639.06;;;10.23;66.26
51468;BME280;37545;45.302;-122.946;2023-11-18T03:57:47;100623.38;;;10.17;68.85
51468;BME280;37545;45.302;-122.946;2023-11-18T04:00:17;100626.78;;;10.16;64.99
51468;BME280;37545;45.302;-122.946;2023-11-18T04:02:50;100625.03;;;10.15;66.77
51468;BME280;37545;45.302;-122.946;2023-11-18T04:05:19;100623.19;;;10.11;66.97
51468;BME280;37545;45.302;-122.946;2023-11-18T04:07:47;100619.59;;;10.06;66.14
51468;BME280;37545;45.302;-122.946;2023-11-18T04:10:16;100620.34;;;10.02;66.12
51468;BME280;37545;45.302;-122.946;2023-11-18T04:12:46;100622.13;;;10.04;65.83
51468;BME280;37545;45.302;-122.946;2023-11-18T04:15:15;100617.03;;;10.06;65.96
51468;BME280;37545;45.302;-122.946;2023-11-18T04:17:43;100618.69;;;10.04;66.46
51468;BME280;37545;45.302;-122.946;2023-11-18T04:20:17;100617.75;;;10.02;66.87
51468;BME280;37545;45.302;-122.946;2023-11-18T04:22:45;100614.25;;;10.00;66.95
51468;BME280;37545;45.302;-122.946;2023-11-18T04:25:14;100615.84;;;9.96;66.98
51468;BME280;37545;45.302;-122.946;2023-11-18T04:27:43;100613.97;;;9.91;66.57
51468;BME280;37545;45.302;-122.946;2023-11-18T04:30:12;100619.09;;;9.89;66.33
51468;BME280;37545;45.302;-122.946;2023-11-18T04:32:41;100609.59;;;9.88;67.04
51468;BME280;37545;45.302;-122.946;2023-11-18T04:35:12;100607.00;;;9.88;69.02
51468;BME280;37545;45.302;-122.946;2023-11-18T04:37:43;100599.25;;;9.88;73.17
51468;BME280;37545;45.302;-122.946;2023-11-18T04:40:12;100607.81;;;9.87;71.45
51468;BME280;37545;45.302;-122.946;2023-11-18T04:42:41;100600.84;;;9.83;71.01
51468;BME280;37545;45.302;-122.946;2023-11-18T04:45:09;100592.81;;;9.74;71.75
51468;BME280;37545;45.302;-122.946;2023-11-18T04:47:40;100608.44;;;9.78;69.84
51468;BME280;37545;45.302;-122.946;2023-11-18T04:50:10;100600.63;;;9.77;71.39
51468;BME280;37545;45.302;-122.946;2023-11-18T04:52:40;100597.03;;;9.72;70.80
51468;BME280;37545;45.302;-122.946;2023-11-18T04:55:18;100603.09;;;9.72;71.89
51468;BME280;37545;45.302;-122.946;2023-11-18T04:57:47;100603.75;;;9.67;73.43
51468;BME280;37545;45.302;-122.946;2023-11-18T05:00:16;100602.03;;;9.65;72.18
51468;BME280;37545;45.302;-122.946;2023-11-18T05:02:46;100607.25;;;9.67;69.58
51468;BME280;37545;45.302;-122.946;2023-11-18T05:05:15;100606.41;;;9.68;70.49
51468;BME280;37545;45.302;-122.946;2023-11-18T05:07:44;100614.88;;;9.64;71.46
51468;BME280;37545;45.302;-122.946;2023-11-18T05:10:13;100610.56;;;9.63;70.24
51468;BME280;37545;45.302;-122.946;2023-11-18T05:12:43;100603.63;;;9.62;70.03
51468;BME280;37545;45.302;-122.946;2023-11-18T05:15:19;100610.50;;;9.61;71.22
51468;BME280;37545;45.302;-122.946;2023-11-18T05:17:51;100617.38;;;9.61;71.26
51468;BME280;37545;45.302;-122.946;2023-11-18T05:20:20;100610.47;;;9.60;70.97
51468;BME280;37545;45.302;-122.946;2023-11-18T05:22:49;100600.94;;;9.59;69.58
51468;BME280;37545;45.302;-122.946;2023-11-18T05:25:17;100600.03;;;9.57;72.76
51468;BME280;37545;45.302;-122.946;2023-11-18T05:27:48;100600.88;;;9.56;73.89
51468;BME280;37545;45.302;-122.946;2023-11-18T05:30:16;100607.59;;;9.51;72.26
51468;BME280;37545;45.302;-122.946;2023-11-18T05:32:45;100610.13;;;9.49;71.14
51468;BME280;37545;45.302;-122.946;2023-11-18T05:35:14;100605.75;;;9.47;71.36
51468;BME280;37545;45.302;-122.946;2023-11-18T05:37:43;100604.03;;;9.47;70.45
51468;BME280;37545;45.302;-122.946;2023-11-18T05:40:12;100600.66;;;9.50;71.29
51468;BME280;37545;45.302;-122.946;2023-11-18T05:42:41;100599.78;;;9.49;71.29
51468;BME280;37545;45.302;-122.946;2023-11-18T05:45:14;100595.41;;;9.47;72.29
51468;BME280;37545;45.302;-122.946;2023-11-18T05:47:54;100592.78;;;9.45;71.88
51468;BME280;37545;45.302;-122.946;2023-11-18T05:50:23;100594.50;;;9.44;73.48
51468;BME280;37545;45.302;-122.946;2023-11-18T05:52:53;100582.34;;;9.42;72.40
51468;BME280;37545;45.302;-122.946;2023-11-18T05:55:22;100581.44;;;9.40;71.79
51468;BME280;37545;45.302;-122.946;2023-11-18T05:57:50;100578.78;;;9.38;71.77
51468;BME280;37545;45.302;-122.946;2023-11-18T06:00:21;100579.56;;;9.36;72.70
51468;BME280;37545;45.302;-122.946;2023-11-18T06:02:51;100585.59;;;9.35;72.45
51468;BME280;37545;45.302;-122.946;2023-11-18T06:05:20;100582.06;;;9.33;73.38
51468;BME280;37545;45.302;-122.946;2023-11-18T06:07:52;100581.09;;;9.29;72.11
51468;BME280;37545;45.302;-122.946;2023-11-18T06:10:21;100584.50;;;9.28;72.32
51468;BME280;37545;45.302;-122.946;2023-11-18T06:12:50;100573.28;;;9.28;73.05
51468;BME280;37545;45.302;-122.946;2023-11-18T06:15:21;100577.72;;;9.32;72.03
51468;BME280;37545;45.302;-122.946;2023-11-18T06:17:49;100575.91;;;9.29;74.67
51468;BME280;37545;45.302;-122.946;2023-11-18T06:20:18;100578.41;;;9.26;75.81
51468;BME280;37545;45.302;-122.946;2023-11-18T06:22:46;100571.44;;;9.23;75.59
51468;BME280;37545;45.302;-122.946;2023-11-18T06:25:15;100569.53;;;9.18;73.39
51468;BME280;37545;45.302;-122.946;2023-11-18T06:27:44;100571.31;;;9.19;73.37
51468;BME280;37545;45.302;-122.946;2023-11-18T06:30:14;100570.47;;;9.20;72.97
51468;BME280;37545;45.302;-122.946;2023-11-18T06:32:45;100563.59;;;9.20;74.47
51468;BME280;37545;45.302;-122.946;2023-11-18T06:35:14;100555.81;;;9.19;73.71
51468;BME280;37545;45.302;-122.946;2023-11-18T06:37:43;100563.44;;;9.16;72.95
51468;BME280;37545;45.302;-122.946;2023-11-18T06:40:13;100568.59;;;9.16;74.60
51468;BME280;37545;45.302;-122.946;2023-11-18T06:42:48;100565.94;;;9.13;72.86
51468;BME280;37545;45.302;-122.946;2023-11-18T06:45:17;100560.72;;;9.11;73.29
51468;BME280;37545;45.302;-122.946;2023-11-18T06:47:47;100557.13;;;9.06;73.08
51468;BME280;37545;45.302;-122.946;2023-11-18T06:50:15;100558.03;;;9.08;73.37
51468;BME280;37545;45.302;-122.946;2023-11-18T06:52:44;100552.94;;;9.10;72.15
51468;BME280;37545;45.302;-122.946;2023-11-18T06:55:13;100559.53;;;9.01;72.47
51468;BME280;37545;45.302;-122.946;2023-11-18T06:57:43;100538.59;;;8.92;72.53
51468;BME280;37545;45.302;-122.946;2023-11-18T07:00:16;100553.31;;;8.95;72.77
51468;BME280;37545;45.302;-122.946;2023-11-18T07:02:48;100559.47;;;8.98;72.84
51468;BME280;37545;45.302;-122.946;2023-11-18T07:05:17;100566.19;;;8.93;72.60
51468;BME280;37545;45.302;-122.946;2023-11-18T07:07:46;100559.31;;;8.94;72.74
51468;BME280;37545;45.302;-122.946;2023-11-18T07:10:15;100565.41;;;8.96;72.17
51468;BME280;37545;45.302;-122.946;2023-11-18T07:12:47;100564.56;;;8.97;72.20
51468;BME280;37545;45.302;-122.946;2023-11-18T07:15:15;100561.19;;;8.99;71.54
51468;BME280;37545;45.302;-122.946;2023-11-18T07:17:44;100563.75;;;8.98;72.64
51468;BME280;37545;45.302;-122.946;2023-11-18T07:20:14;100555.94;;;8.96;73.80
51468;BME280;37545;45.302;-122.946;2023-11-18T07:22:43;100553.31;;;8.95;72.84
51468;BME280;37545;45.302;-122.946;2023-11-18T07:25:11;100559.34;;;8.95;71.68
51468;BME280;37545;45.302;-122.946;2023-11-18T07:27:40;100559.34;;;8.95;72.38
51468;BME280;37545;45.302;-122.946;2023-11-18T07:30:09;100555.84;;;8.93;71.74
51468;BME280;37545;45.302;-122.946;2023-11-18T07:32:38;100554.94;;;8.93;71.14
51468;BME280;37545;45.302;-122.946;2023-11-18T07:35:08;100547.19;;;8.91;71.01
51468;BME280;37545;45.302;-122.946;2023-11-18T07:37:42;100544.47;;;8.88;74.57
51468;BME280;37545;45.302;-122.946;2023-11-18T07:40:11;100539.16;;;8.84;73.57
51468;BME280;37545;45.302;-122.946;2023-11-18T07:42:48;100533.91;;;8.80;72.45
51468;BME280;37545;45.302;-122.946;2023-11-18T07:45:16;100534.72;;;8.79;71.71
51468;BME280;37545;45.302;-122.946;2023-11-18T07:47:45;100538.09;;;8.77;71.17
51468;BME280;37545;45.302;-122.946;2023-11-18T07:50:14;100531.09;;;8.73;70.81
51468;BME280;37545;45.302;-122.946;2023-11-18T07:52:44;100527.78;;;8.77;71.53
51468;BME280;37545;45.302;-122.946;2023-11-18T07:55:13;100532.94;;;8.77;71.87
51468;BME280;37545;45.302;-122.946;2023-11-18T07:57:41;100530.34;;;8.77;71.44
51468;BME280;37545;45.302;-122.946;2023-11-18T08:00:11;100532.06;;;8.76;71.08
51468;BME280;37545;45.302;-122.946;2023-11-18T08:02:41;100535.41;;;8.74;70.80
51468;BME280;37545;45.302;-122.946;2023-11-18T08:05:10;100539.66;;;8.72;73.98
51468;BME280;37545;45.302;-122.946;2023-11-18T08:07:40;100526.66;;;8.69;70.93
51468;BME280;37545;45.302;-122.946;2023-11-18T08:10:12;100510.00;;;8.59;70.58
51468;BME280;37545;45.302;-122.946;2023-11-18T08:12:45;100520.56;;;8.67;72.92
51468;BME280;37545;45.302;-122.946;2023-11-18T08:15:14;100522.28;;;8.66;73.49
51468;BME280;37545;45.302;-122.946;2023-11-18T08:17:43;100521.44;;;8.67;70.36
51468;BME280;37545;45.302;-122.946;2023-11-18T08:20:11;100516.19;;;8.64;70.83
51468;BME280;37545;45.302;-122.946;2023-11-18T08:22:42;100515.25;;;8.62;69.85
51468;BME280;37545;45.302;-122.946;2023-11-18T08:25:13;100510.88;;;8.59;69.88
51468;BME280;37545;45.302;-122.946;2023-11-18T08:27:44;100504.78;;;8.57;70.07
51468;BME280;37545;45.302;-122.946;2023-11-18T08:30:13;100507.38;;;8.57;69.92
51468;BME280;37545;45.302;-122.946;2023-11-18T08:32:45;100505.66;;;8.58;68.79
51468;BME280;37545;45.302;-122.946;2023-11-18T08:35:14;100496.22;;;8.58;68.90
51468;BME280;37545;45.302;-122.946;2023-11-18T08:37:43;100501.50;;;8.62;68.62
51468;BME280;37545;45.302;-122.946;2023-11-18T08:40:14;100502.28;;;8.60;69.77
51468;BME280;37545;45.302;-122.946;2023-11-18T08:42:43;100496.34;;;8.62;70.16
51468;BME280;37545;45.302;-122.946;2023-11-18T08:45:16;100493.75;;;8.62;69.53
51468;BME280;37545;45.302;-122.946;2023-11-18T08:47:46;100500.72;;;8.64;68.25
51468;BME280;37545;45.302;-122.946;2023-11-18T08:50:15;100493.91;;;8.66;69.51
51468;BME280;37545;45.302;-122.946;2023-11-18T08:52:44;100492.19;;;8.67;68.97
51468;BME280;37545;45.302;-122.946;2023-11-18T08:55:15;100500.88;;;8.69;69.14
51468;BME280;37545;45.302;-122.946;2023-11-18T08:57:47;100501.78;;;8.71;69.55
51468;BME280;37545;45.302;-122.946;2023-11-18T09:00:19;100489.69;;;8.70;68.89
51468;BME280;37545;45.302;-122.946;2023-11-18T09:03:01;100483.75;;;8.71;68.87
51468;BME280;37545;45.302;-122.946;2023-11-18T09:05:34;100484.53;;;8.70;67.78
51468;BME280;37545;45.302;-122.946;2023-11-18T09:08:04;100477.75;;;8.72;66.98
51468;BME280;37545;45.302;-122.946;2023-11-18T09:10:35;100476.09;;;8.74;67.76
51468;BME280;37545;45.302;-122.946;2023-11-18T09:13:04;100467.50;;;8.75;69.43
51468;BME280;37545;45.302;-122.946;2023-11-18T09:15:32;100466.63;;;8.74;67.36
51468;BME280;37545;45.302;-122.946;2023-11-18T09:18:03;100462.34;;;8.75;68.85
51468;BME280;37545;45.302;-122.946;2023-11-18T09:20:36;100454.59;;;8.73;66.38
51468;BME280;37545;45.302;-122.946;2023-11-18T09:23:06;100460.59;;;8.74;67.55
51468;BME280;37545;45.302;-122.946;2023-11-18T09:25:37;100462.34;;;8.75;67.37
51468;BME280;37545;45.302;-122.946;2023-11-18T09:28:06;100453.75;;;8.74;67.44
51468;BME280;37545;45.302;-122.946;2023-11-18T09:30:38;100456.31;;;8.74;67.15
51468;BME280;37545;45.302;-122.946;2023-11-18T09:33:18;100445.19;;;8.75;66.80
51468;BME280;37545;45.302;-122.946;2023-11-18T09:35:56;100447.00;;;8.78;67.07
51468;BME280;37545;45.302;-122.946;2023-11-18T09:38:27;100455.53;;;8.77;66.80
51468;BME280;37545;45.302;-122.946;2023-11-18T09:41:01;100446.22;;;8.80;66.48
51468;BME280;37545;45.302;-122.946;2023-11-18T09:43:30;100447.94;;;8.81;66.77
51468;BME280;37545;45.302;-122.946;2023-11-18T09:46:05;100441.09;;;8.82;66.39
51468;BME280;37545;45.302;-122.946;2023-11-18T09:48:42;100442.78;;;8.81;67.08
51468;BME280;37545;45.302;-122.946;2023-11-18T09:51:20;100453.09;;;8.81;66.01
51468;BME280;37545;45.302;-122.946;2023-11-18T09:53:50;100448.84;;;8.82;67.76
51468;BME280;37545;45.302;-122.946;2023-11-18T09:56:30;100445.13;;;8.74;69.82
51468;BME280;37545;45.302;-122.946;2023-11-18T09:59:10;100453.78;;;8.76;69.71
51468;BME280;37545;45.302;-122.946;2023-11-18T10:01:43;100459.03;;;8.79;68.67
51468;BME280;37545;45.302;-122.946;2023-11-18T10:04:14;100455.66;;;8.80;67.61
51468;BME280;37545;45.302;-122.946;2023-11-18T10:06:46;100454.88;;;8.83;68.73
51468;BME280;37545;45.302;-122.946;2023-11-18T10:09:16;100443.69;;;8.82;69.25
51468;BME280;37545;45.302;-122.946;2023-11-18T10:11:56;100428.88;;;8.76;68.32
51468;BME280;37545;45.302;-122.946;2023-11-18T10:14:31;100439.41;;;8.84;67.58
51468;BME280;37545;45.302;-122.946;2023-11-18T10:17:03;100439.53;;;8.87;68.67
51468;BME280;37545;45.302;-122.946;2023-11-18T10:19:52;100437.78;;;8.86;67.82
51468;BME280;37545;45.302;-122.946;2023-11-18T10:22:24;100426.63;;;8.87;67.11
51468;BME280;37545;45.302;-122.946;2023-11-18T10:24:53;100424.97;;;8.89;67.35
51468;BME280;37545;45.302;-122.946;2023-11-18T10:27:26;100430.16;;;8.89;66.65
51468;BME280;37545;45.302;-122.946;2023-11-18T10:29:57;100419.81;;;8.89;66.69
51468;BME280;37545;45.302;-122.946;2023-11-18T10:32:28;100425.91;;;8.91;68.66
51468;BME280;37545;45.302;-122.946;2023-11-18T10:35:04;100422.44;;;8.91;67.46
51468;BME280;37545;45.302;-122.946;2023-11-18T10:37:33;100432.00;;;8.93;68.58
51468;BME280;37545;45.302;-122.946;2023-11-18T10:40:10;100438.91;;;8.94;68.92
51468;BME280;37545;45.302;-122.946;2023-11-18T10:42:43;100428.63;;;8.96;68.35
51468;BME280;37545;45.302;-122.946;2023-11-18T10:45:23;100420.00;;;8.95;67.08
51468;BME280;37545;45.302;-122.946;2023-11-18T10:47:54;100421.75;;;8.96;67.53
51468;BME280;37545;45.302;-122.946;2023-11-18T10:50:23;100412.25;;;8.95;67.72
51468;BME280;37545;45.302;-122.946;2023-11-18T10:52:58;100409.66;;;8.95;66.77
51468;BME280;37545;45.302;-122.946;2023-11-18T10:55:36;100401.69;;;8.88;67.30
51468;BME280;37545;45.302;-122.946;2023-11-18T10:58:08;100422.63;;;8.97;66.77
51468;BME280;37545;45.302;-122.946;2023-11-18T11:00:49;100408.00;;;8.96;67.25
51468;BME280;37545;45.302;-122.946;2023-11-18T11:03:20;100407.94;;;8.94;66.13
51468;BME280;37545;45.302;-122.946;2023-11-18T11:05:50;100413.16;;;8.96;66.35
51468;BME280;37545;45.302;-122.946;2023-11-18T11:08:23;100411.38;;;8.95;68.03
51468;BME280;37545;45.302;-122.946;2023-11-18T11:10:56;100409.66;;;8.94;68.39
51468;BME280;37545;45.302;-122.946;2023-11-18T11:13:29;100408.72;;;8.92;67.27
51468;BME280;37545;45.302;-122.946;2023-11-18T11:16:03;100407.88;;;8.93;68.24
51468;BME280;37545;45.302;-122.946;2023-11-18T11:18:37;100399.22;;;8.91;68.24
51468;BME280;37545;45.302;-122.946;2023-11-18T11:21:14;100395.75;;;8.90;67.93
51468;BME280;37545;45.302;-122.946;2023-11-18T11:23:52;100390.59;;;8.90;68.63
51468;BME280;37545;45.302;-122.946;2023-11-18T11:26:30;100381.94;;;8.88;68.44
51468;BME280;37545;45.302;-122.946;2023-11-18T11:29:21;100375.03;;;8.87;68.58
51468;BME280;37545;45.302;-122.946;2023-11-18T11:32:02;100371.59;;;8.87;69.15
51468;BME280;37545;45.302;-122.946;2023-11-18T11:34:33;100370.66;;;8.85;68.93
51468;BME280;37545;45.302;-122.946;2023-11-18T11:37:04;100357.75;;;8.85;68.36
51468;BME280;37545;45.302;-122.946;2023-11-18T11:39:36;100349.13;;;8.84;68.63
51468;BME280;37545;45.302;-122.946;2023-11-18T11:42:13;100341.38;;;8.84;68.47
51468;BME280;37545;45.302;-122.946;2023-11-18T11:44:55;100331.84;;;8.81;68.44
51468;BME280;37545;45.302;-122.946;2023-11-18T11:47:27;100330.16;;;8.82;67.80
51468;BME280;37545;45.302;-122.946;2023-11-18T11:50:06;100316.38;;;8.81;68.04
51468;BME280;37545;45.302;-122.946;2023-11-18T11:52:45;100329.28;;;8.81;68.58
51468;BME280;37545;45.302;-122.946;2023-11-18T11:55:26;100329.13;;;8.77;67.98
51468;BME280;37545;45.302;-122.946;2023-11-18T11:57:59;100341.22;;;8.78;68.73
51468;BME280;37545;45.302;-122.946;2023-11-18T12:00:33;100338.63;;;8.78;69.02
51468;BME280;37545;45.302;-122.946;2023-11-18T12:03:02;100343.81;;;8.78;69.79
51468;BME280;37545;45.302;-122.946;2023-11-18T12:05:32;100342.03;;;8.77;69.70
51468;BME280;37545;45.302;-122.946;2023-11-18T12:08:10;100339.31;;;8.72;68.59
51468;BME280;37545;45.302;-122.946;2023-11-18T12:10:39;100348.84;;;8.75;68.48
51468;BME280;37545;45.302;-122.946;2023-11-18T12:13:08;100359.16;;;8.75;71.63
51468;BME280;37545;45.302;-122.946;2023-11-18T12:15:50;100352.28;;;8.74;68.29
51468;BME280;37545;45.302;-122.946;2023-11-18T12:18:23;100357.44;;;8.74;67.98
51468;BME280;37545;45.302;-122.946;2023-11-18T12:20:59;100350.53;;;8.73;67.86
51468;BME280;37545;45.302;-122.946;2023-11-18T12:26:49;100324.59;;;8.68;69.51
51468;BME280;37545;45.302;-122.946;2023-11-18T12:29:33;100325.47;;;8.69;70.32
51468;BME280;37545;45.302;-122.946;2023-11-18T12:32:04;100321.97;;;8.67;70.45
51468;BME280;37545;45.302;-122.946;2023-11-18T12:34:53;100317.63;;;8.66;68.85
51468;BME280;37545;45.302;-122.946;2023-11-18T12:40:53;100308.09;;;8.63;69.86
51468;BME280;37545;45.302;-122.946;2023-11-18T12:43:46;100306.28;;;8.59;70.12
51468;BME280;37545;45.302;-122.946;2023-11-18T12:46:50;100304.50;;;8.58;69.52
51468;BME280;37545;45.302;-122.946;2023-11-18T12:49:24;100296.72;;;8.56;69.73
51468;BME280;37545;45.302;-122.946;2023-11-18T12:51:54;100293.31;;;8.57;69.43
51468;BME280;37545;45.302;-122.946;2023-11-18T12:54:25;100297.56;;;8.55;70.61